Portada
METAR-TAF:

METAR-TAF

Aeroports :

Volgograd, Rússia

latitud: 48-47N, longitud: 044-22E, altitud: 145 m

Observació

L'informe es va fer fa 47 minuts, a les 08:00 UTC
Vent 14 kt del Nord
Temperatura 28°C
Humitat 42%
Pressió 1012 hPa
Visibilitat 10 km o més
sense núvols per sota de 1500 mi sense presència de cumulonimbus.

METAR: URWW 080800Z 01007MPS CAVOK 28/14 Q1012 R06/010060 TEMPO BKN005

Hora: 12:47 (08:47 UTC)

Pronòstic

L'informe es va fer fa 48 minuts, a les 07:59 UTC
Pronòstic vàlid del 08 a les 09 UTC al 08 a les 18 UTC
Vent 14 kt del Nord/Nord-Est amb ràfegues de 23 kt
Visibilitat 10 km o més
Núvols disperses a una alçada de 4000 ft
Temporalment
l' 08 a les 09 UTC al 08 a les 18 UTC
Vent 17 kt del Nord amb ràfegues de 27 kt
Núvols disperses a una alçada de 3000 ft, Cumulonimbus.

TAF: URWW 080759Z 0809/0818 03007G12MPS 9999 SCT040 TEMPO 0809/0818 36009G14MPS SCT030CB

Observacions i pronòstics meteorològics de més de 4000 aeroports (METAR i TAF).

Les estacions disponibles són els punts grocs i vermells al mapa.

Posi el ratolí al punt desitjat per veure el nom de l'estació.

Feu clic per veure les observacions i els pronòstics meteorològics.

Per canviar el mapa: feu clic els botons verds amb una creu de color negre per apropar; al botó verd amb un guió per allunyar la imatge; o en les fletxes verdes per a mapes adjacents.


METAR-TAF: